sensor_id;sensor_type;location;lat;lon;timestamp;temperature;humidity
22173;DHT22;11252;50.596;17.648;2023-05-07T00:00:22;9.70;92.20
22173;DHT22;11252;50.596;17.648;2023-05-07T00:02:50;9.70;92.20
22173;DHT22;11252;50.596;17.648;2023-05-07T00:05:17;9.70;92.20
22173;DHT22;11252;50.596;17.648;2023-05-07T00:07:47;9.70;92.20
22173;DHT22;11252;50.596;17.648;2023-05-07T00:10:14;9.70;92.20
22173;DHT22;11252;50.596;17.648;2023-05-07T00:12:43;9.80;92.20
22173;DHT22;11252;50.596;17.648;2023-05-07T00:15:10;9.70;92.20
22173;DHT22;11252;50.596;17.648;2023-05-07T00:17:38;9.70;92.20
22173;DHT22;11252;50.596;17.648;2023-05-07T00:20:07;9.70;92.20
22173;DHT22;11252;50.596;17.648;2023-05-07T00:22:35;9.70;92.20
22173;DHT22;11252;50.596;17.648;2023-05-07T00:25:03;9.70;92.20
22173;DHT22;11252;50.596;17.648;2023-05-07T00:27:33;9.70;92.20
22173;DHT22;11252;50.596;17.648;2023-05-07T00:30:00;9.70;92.20
22173;DHT22;11252;50.596;17.648;2023-05-07T00:32:28;9.70;92.20
22173;DHT22;11252;50.596;17.648;2023-05-07T00:34:55;9.70;92.20
22173;DHT22;11252;50.596;17.648;2023-05-07T00:37:23;9.70;92.20
22173;DHT22;11252;50.596;17.648;2023-05-07T00:39:50;9.70;92.20
22173;DHT22;11252;50.596;17.648;2023-05-07T00:42:18;9.70;92.20
22173;DHT22;11252;50.596;17.648;2023-05-07T00:44:45;9.70;92.20
22173;DHT22;11252;50.596;17.648;2023-05-07T00:47:13;9.70;92.20
22173;DHT22;11252;50.596;17.648;2023-05-07T00:49:45;9.70;92.20
22173;DHT22;11252;50.596;17.648;2023-05-07T00:52:16;9.60;92.20
22173;DHT22;11252;50.596;17.648;2023-05-07T00:54:47;9.60;92.20
22173;DHT22;11252;50.596;17.648;2023-05-07T00:57:15;9.60;92.20
22173;DHT22;11252;50.596;17.648;2023-05-07T00:59:44;9.60;92.20
22173;DHT22;11252;50.596;17.648;2023-05-07T01:02:11;9.60;92.20
22173;DHT22;11252;50.596;17.648;2023-05-07T01:04:39;9.60;92.20
22173;DHT22;11252;50.596;17.648;2023-05-07T01:07:08;9.50;92.20
22173;DHT22;11252;50.596;17.648;2023-05-07T01:09:36;9.50;92.20
22173;DHT22;11252;50.596;17.648;2023-05-07T01:12:05;9.50;92.20
22173;DHT22;11252;50.596;17.648;2023-05-07T01:14:33;9.50;92.20
22173;DHT22;11252;50.596;17.648;2023-05-07T01:17:01;9.50;92.20
22173;DHT22;11252;50.596;17.648;2023-05-07T01:19:29;9.50;92.20
22173;DHT22;11252;50.596;17.648;2023-05-07T01:22:03;9.40;92.20
22173;DHT22;11252;50.596;17.648;2023-05-07T01:24:32;9.40;92.20
22173;DHT22;11252;50.596;17.648;2023-05-07T01:26:59;9.40;92.20
22173;DHT22;11252;50.596;17.648;2023-05-07T01:29:28;9.40;92.20
22173;DHT22;11252;50.596;17.648;2023-05-07T01:31:58;9.40;92.20
22173;DHT22;11252;50.596;17.648;2023-05-07T01:34:32;9.40;92.20
22173;DHT22;11252;50.596;17.648;2023-05-07T01:37:00;9.40;92.20
22173;DHT22;11252;50.596;17.648;2023-05-07T01:39:29;9.40;92.20
22173;DHT22;11252;50.596;17.648;2023-05-07T01:41:59;9.40;92.20
22173;DHT22;11252;50.596;17.648;2023-05-07T01:44:27;9.30;92.20
22173;DHT22;11252;50.596;17.648;2023-05-07T01:46:54;9.40;92.20
22173;DHT22;11252;50.596;17.648;2023-05-07T01:49:22;9.30;92.20
22173;DHT22;11252;50.596;17.648;2023-05-07T01:51:50;9.30;92.20
22173;DHT22;11252;50.596;17.648;2023-05-07T01:54:18;9.30;92.20
22173;DHT22;11252;50.596;17.648;2023-05-07T01:56:45;9.30;92.20
22173;DHT22;11252;50.596;17.648;2023-05-07T01:59:15;9.30;92.20
22173;DHT22;11252;50.596;17.648;2023-05-07T02:01:44;9.30;92.20
22173;DHT22;11252;50.596;17.648;2023-05-07T02:04:12;9.30;92.20
22173;DHT22;11252;50.596;17.648;2023-05-07T02:06:39;9.30;92.20
22173;DHT22;11252;50.596;17.648;2023-05-07T02:09:07;9.20;92.20
22173;DHT22;11252;50.596;17.648;2023-05-07T02:11:36;9.20;92.20
22173;DHT22;11252;50.596;17.648;2023-05-07T02:14:03;9.10;92.20
22173;DHT22;11252;50.596;17.648;2023-05-07T02:16:31;9.10;92.20
22173;DHT22;11252;50.596;17.648;2023-05-07T02:18:58;9.20;92.20
22173;DHT22;11252;50.596;17.648;2023-05-07T02:21:26;9.10;92.20
22173;DHT22;11252;50.596;17.648;2023-05-07T02:24:00;9.10;92.20
22173;DHT22;11252;50.596;17.648;2023-05-07T02:26:30;9.10;92.20
22173;DHT22;11252;50.596;17.648;2023-05-07T02:28:58;9.10;92.20
22173;DHT22;11252;50.596;17.648;2023-05-07T02:31:25;9.10;92.20
22173;DHT22;11252;50.596;17.648;2023-05-07T02:33:53;9.10;92.20
22173;DHT22;11252;50.596;17.648;2023-05-07T02:36:21;9.10;92.20
22173;DHT22;11252;50.596;17.648;2023-05-07T02:38:48;9.10;92.20
22173;DHT22;11252;50.596;17.648;2023-05-07T02:41:15;9.00;92.20
22173;DHT22;11252;50.596;17.648;2023-05-07T02:43:43;9.00;92.20
22173;DHT22;11252;50.596;17.648;2023-05-07T02:46:10;9.00;92.20
22173;DHT22;11252;50.596;17.648;2023-05-07T02:48:38;9.00;92.20
22173;DHT22;11252;50.596;17.648;2023-05-07T02:51:06;9.00;92.20
22173;DHT22;11252;50.596;17.648;2023-05-07T02:53:33;9.00;92.20
22173;DHT22;11252;50.596;17.648;2023-05-07T02:56:01;9.00;92.20
22173;DHT22;11252;50.596;17.648;2023-05-07T02:58:28;9.00;92.20
22173;DHT22;11252;50.596;17.648;2023-05-07T03:00:57;9.00;92.20
22173;DHT22;11252;50.596;17.648;2023-05-07T03:03:24;8.90;92.20
22173;DHT22;11252;50.596;17.648;2023-05-07T03:05:52;8.90;92.20
22173;DHT22;11252;50.596;17.648;2023-05-07T03:08:19;8.80;92.20
22173;DHT22;11252;50.596;17.648;2023-05-07T03:10:47;8.90;92.20
22173;DHT22;11252;50.596;17.648;2023-05-07T03:13:15;8.90;92.20
22173;DHT22;11252;50.596;17.648;2023-05-07T03:15:42;8.80;92.20
22173;DHT22;11252;50.596;17.648;2023-05-07T03:18:09;8.80;92.20
22173;DHT22;11252;50.596;17.648;2023-05-07T03:20:37;8.80;92.20
22173;DHT22;11252;50.596;17.648;2023-05-07T03:23:05;8.80;92.20
22173;DHT22;11252;50.596;17.648;2023-05-07T03:25:32;8.80;92.20
22173;DHT22;11252;50.596;17.648;2023-05-07T03:28:00;8.80;92.20
22173;DHT22;11252;50.596;17.648;2023-05-07T03:30:28;8.80;92.20
22173;DHT22;11252;50.596;17.648;2023-05-07T03:32:55;8.80;92.20
22173;DHT22;11252;50.596;17.648;2023-05-07T03:35:23;8.70;92.20
22173;DHT22;11252;50.596;17.648;2023-05-07T03:37:51;8.70;92.20
22173;DHT22;11252;50.596;17.648;2023-05-07T03:40:19;8.80;92.20
22173;DHT22;11252;50.596;17.648;2023-05-07T03:42:47;8.70;92.20
22173;DHT22;11252;50.596;17.648;2023-05-07T03:45:14;8.70;92.20
22173;DHT22;11252;50.596;17.648;2023-05-07T03:47:42;8.70;92.20
22173;DHT22;11252;50.596;17.648;2023-05-07T03:50:10;8.70;92.20
22173;DHT22;11252;50.596;17.648;2023-05-07T03:52:38;8.70;92.20
22173;DHT22;11252;50.596;17.648;2023-05-07T03:55:05;8.70;92.20
22173;DHT22;11252;50.596;17.648;2023-05-07T03:57:33;8.70;92.20
22173;DHT22;11252;50.596;17.648;2023-05-07T04:00:00;8.70;92.20
22173;DHT22;11252;50.596;17.648;2023-05-07T04:02:29;8.60;92.20
22173;DHT22;11252;50.596;17.648;2023-05-07T04:04:58;8.70;92.20
22173;DHT22;11252;50.596;17.648;2023-05-07T04:07:25;8.70;92.20
22173;DHT22;11252;50.596;17.648;2023-05-07T04:09:53;8.60;92.20
22173;DHT22;11252;50.596;17.648;2023-05-07T04:12:20;8.60;92.20
22173;DHT22;11252;50.596;17.648;2023-05-07T04:14:48;8.60;92.20
22173;DHT22;11252;50.596;17.648;2023-05-07T04:17:16;8.60;92.20
22173;DHT22;11252;50.596;17.648;2023-05-07T04:19:43;8.50;92.20
22173;DHT22;11252;50.596;17.648;2023-05-07T04:22:12;8.50;92.20
22173;DHT22;11252;50.596;17.648;2023-05-07T04:24:40;8.40;92.20
22173;DHT22;11252;50.596;17.648;2023-05-07T04:27:07;8.50;92.20
22173;DHT22;11252;50.596;17.648;2023-05-07T04:29:34;8.50;92.20
22173;DHT22;11252;50.596;17.648;2023-05-07T04:32:02;8.40;92.20
22173;DHT22;11252;50.596;17.648;2023-05-07T04:34:29;8.40;92.20
22173;DHT22;11252;50.596;17.648;2023-05-07T04:36:58;8.40;92.20
22173;DHT22;11252;50.596;17.648;2023-05-07T04:39:26;8.50;92.20
22173;DHT22;11252;50.596;17.648;2023-05-07T04:41:54;8.50;92.20
22173;DHT22;11252;50.596;17.648;2023-05-07T04:44:22;8.50;92.20
22173;DHT22;11252;50.596;17.648;2023-05-07T04:46:50;8.50;92.20
22173;DHT22;11252;50.596;17.648;2023-05-07T04:49:17;8.50;92.20
22173;DHT22;11252;50.596;17.648;2023-05-07T04:51:45;8.60;92.20
22173;DHT22;11252;50.596;17.648;2023-05-07T04:54:13;8.60;92.20
22173;DHT22;11252;50.596;17.648;2023-05-07T04:56:40;8.50;92.20
22173;DHT22;11252;50.596;17.648;2023-05-07T04:59:08;8.50;92.20
22173;DHT22;11252;50.596;17.648;2023-05-07T05:01:36;8.60;92.20
22173;DHT22;11252;50.596;17.648;2023-05-07T05:04:04;8.50;92.20
22173;DHT22;11252;50.596;17.648;2023-05-07T05:06:32;8.50;92.20
22173;DHT22;11252;50.596;17.648;2023-05-07T05:08:59;8.50;92.20
22173;DHT22;11252;50.596;17.648;2023-05-07T05:11:29;8.40;92.20
22173;DHT22;11252;50.596;17.648;2023-05-07T05:14:00;8.40;92.20
22173;DHT22;11252;50.596;17.648;2023-05-07T05:16:27;8.40;92.20
22173;DHT22;11252;50.596;17.648;2023-05-07T05:18:55;8.40;92.20
22173;DHT22;11252;50.596;17.648;2023-05-07T05:21:22;8.40;92.20
22173;DHT22;11252;50.596;17.648;2023-05-07T05:23:50;8.40;92.20
22173;DHT22;11252;50.596;17.648;2023-05-07T05:26:17;8.40;92.20
22173;DHT22;11252;50.596;17.648;2023-05-07T05:28:45;8.40;92.20
22173;DHT22;11252;50.596;17.648;2023-05-07T05:31:13;8.40;92.20
22173;DHT22;11252;50.596;17.648;2023-05-07T05:33:41;8.40;92.20
22173;DHT22;11252;50.596;17.648;2023-05-07T05:36:11;8.40;92.20
22173;DHT22;11252;50.596;17.648;2023-05-07T05:38:40;8.40;92.20
22173;DHT22;11252;50.596;17.648;2023-05-07T05:41:07;8.30;92.20
22173;DHT22;11252;50.596;17.648;2023-05-07T05:43:35;8.30;92.20
22173;DHT22;11252;50.596;17.648;2023-05-07T05:46:02;8.30;92.20
22173;DHT22;11252;50.596;17.648;2023-05-07T05:48:31;8.30;92.20
22173;DHT22;11252;50.596;17.648;2023-05-07T05:50:58;8.40;92.20
22173;DHT22;11252;50.596;17.648;2023-05-07T05:53:26;8.40;92.20
22173;DHT22;11252;50.596;17.648;2023-05-07T05:55:53;8.40;92.20
22173;DHT22;11252;50.596;17.648;2023-05-07T05:58:22;8.40;92.20
22173;DHT22;11252;50.596;17.648;2023-05-07T06:00:49;8.40;92.20
22173;DHT22;11252;50.596;17.648;2023-05-07T06:03:19;8.50;92.20
22173;DHT22;11252;50.596;17.648;2023-05-07T06:05:46;8.50;92.20
22173;DHT22;11252;50.596;17.648;2023-05-07T06:08:13;8.50;92.20
22173;DHT22;11252;50.596;17.648;2023-05-07T06:10:41;8.60;92.20
22173;DHT22;11252;50.596;17.648;2023-05-07T06:13:09;8.60;92.20
22173;DHT22;11252;50.596;17.648;2023-05-07T06:15:37;8.60;92.20
22173;DHT22;11252;50.596;17.648;2023-05-07T06:18:05;8.80;92.20
22173;DHT22;11252;50.596;17.648;2023-05-07T06:20:32;8.80;92.20
22173;DHT22;11252;50.596;17.648;2023-05-07T06:23:00;8.90;92.20
22173;DHT22;11252;50.596;17.648;2023-05-07T06:25:27;9.00;92.20
22173;DHT22;11252;50.596;17.648;2023-05-07T06:27:55;9.00;92.20
22173;DHT22;11252;50.596;17.648;2023-05-07T06:30:25;9.00;92.20
22173;DHT22;11252;50.596;17.648;2023-05-07T06:32:54;9.00;92.20
22173;DHT22;11252;50.596;17.648;2023-05-07T06:35:21;9.10;92.20
22173;DHT22;11252;50.596;17.648;2023-05-07T06:37:49;9.10;92.20
22173;DHT22;11252;50.596;17.648;2023-05-07T06:40:16;9.10;92.20
22173;DHT22;11252;50.596;17.648;2023-05-07T06:42:44;9.20;92.20
22173;DHT22;11252;50.596;17.648;2023-05-07T06:45:11;9.20;92.20
22173;DHT22;11252;50.596;17.648;2023-05-07T06:47:38;9.20;92.20
22173;DHT22;11252;50.596;17.648;2023-05-07T06:50:06;9.20;92.20
22173;DHT22;11252;50.596;17.648;2023-05-07T06:52:35;9.20;92.20
22173;DHT22;11252;50.596;17.648;2023-05-07T06:55:02;9.20;92.20
22173;DHT22;11252;50.596;17.648;2023-05-07T06:57:30;9.20;92.20
22173;DHT22;11252;50.596;17.648;2023-05-07T06:59:58;9.10;92.20
22173;DHT22;11252;50.596;17.648;2023-05-07T07:02:25;9.00;92.20
22173;DHT22;11252;50.596;17.648;2023-05-07T07:04:53;9.00;92.20
22173;DHT22;11252;50.596;17.648;2023-05-07T07:07:20;9.00;92.20
22173;DHT22;11252;50.596;17.648;2023-05-07T07:09:49;9.00;92.20
22173;DHT22;11252;50.596;17.648;2023-05-07T07:12:16;8.90;92.20
22173;DHT22;11252;50.596;17.648;2023-05-07T07:14:44;8.90;92.20
22173;DHT22;11252;50.596;17.648;2023-05-07T07:17:11;8.90;92.20
22173;DHT22;11252;50.596;17.648;2023-05-07T07:19:38;8.90;92.20
22173;DHT22;11252;50.596;17.648;2023-05-07T07:22:06;8.90;92.20
22173;DHT22;11252;50.596;17.648;2023-05-07T07:24:33;8.80;92.20
22173;DHT22;11252;50.596;17.648;2023-05-07T07:27:01;8.80;92.20
22173;DHT22;11252;50.596;17.648;2023-05-07T07:29:28;8.80;92.20
22173;DHT22;11252;50.596;17.648;2023-05-07T07:31:57;8.90;92.20
22173;DHT22;11252;50.596;17.648;2023-05-07T07:34:24;9.00;92.20
22173;DHT22;11252;50.596;17.648;2023-05-07T07:36:51;9.00;92.20
22173;DHT22;11252;50.596;17.648;2023-05-07T07:39:19;9.00;92.20
22173;DHT22;11252;50.596;17.648;2023-05-07T07:41:46;9.10;92.20
22173;DHT22;11252;50.596;17.648;2023-05-07T07:44:14;9.20;92.20
22173;DHT22;11252;50.596;17.648;2023-05-07T07:46:42;9.20;92.20
22173;DHT22;11252;50.596;17.648;2023-05-07T07:49:10;9.30;92.20
22173;DHT22;11252;50.596;17.648;2023-05-07T07:51:37;9.40;92.20
22173;DHT22;11252;50.596;17.648;2023-05-07T07:54:05;9.40;92.20
22173;DHT22;11252;50.596;17.648;2023-05-07T07:56:33;9.50;92.20
22173;DHT22;11252;50.596;17.648;2023-05-07T07:59:01;9.50;92.20
22173;DHT22;11252;50.596;17.648;2023-05-07T08:01:30;9.50;92.20
22173;DHT22;11252;50.596;17.648;2023-05-07T08:03:58;9.50;92.20
22173;DHT22;11252;50.596;17.648;2023-05-07T08:06:31;9.50;92.20
22173;DHT22;11252;50.596;17.648;2023-05-07T08:08:59;9.50;92.20
22173;DHT22;11252;50.596;17.648;2023-05-07T08:11:26;9.60;92.20
22173;DHT22;11252;50.596;17.648;2023-05-07T08:13:54;9.50;92.20
22173;DHT22;11252;50.596;17.648;2023-05-07T08:16:22;9.40;92.20
22173;DHT22;11252;50.596;17.648;2023-05-07T08:18:50;9.30;92.20
22173;DHT22;11252;50.596;17.648;2023-05-07T08:21:17;9.30;92.20
22173;DHT22;11252;50.596;17.648;2023-05-07T08:23:45;9.20;92.20
22173;DHT22;11252;50.596;17.648;2023-05-07T08:26:12;9.20;92.20
22173;DHT22;11252;50.596;17.648;2023-05-07T08:28:40;9.20;92.20
22173;DHT22;11252;50.596;17.648;2023-05-07T08:31:07;9.20;92.20
22173;DHT22;11252;50.596;17.648;2023-05-07T08:33:35;9.30;92.20
22173;DHT22;11252;50.596;17.648;2023-05-07T08:36:02;9.30;92.20
22173;DHT22;11252;50.596;17.648;2023-05-07T08:38:31;9.30;92.20
22173;DHT22;11252;50.596;17.648;2023-05-07T08:40:58;9.30;92.20
22173;DHT22;11252;50.596;17.648;2023-05-07T08:43:27;9.20;92.20
22173;DHT22;11252;50.596;17.648;2023-05-07T08:45:55;9.30;92.20
22173;DHT22;11252;50.596;17.648;2023-05-07T08:48:25;9.40;92.20
22173;DHT22;11252;50.596;17.648;2023-05-07T08:50:54;9.40;92.20
22173;DHT22;11252;50.596;17.648;2023-05-07T08:53:22;9.30;92.20
22173;DHT22;11252;50.596;17.648;2023-05-07T08:55:50;9.30;92.20
22173;DHT22;11252;50.596;17.648;2023-05-07T08:58:18;9.20;92.20
22173;DHT22;11252;50.596;17.648;2023-05-07T09:00:46;9.20;92.20
22173;DHT22;11252;50.596;17.648;2023-05-07T09:03:14;9.10;92.20
22173;DHT22;11252;50.596;17.648;2023-05-07T09:05:43;9.10;92.20
22173;DHT22;11252;50.596;17.648;2023-05-07T09:08:15;9.20;92.20
22173;DHT22;11252;50.596;17.648;2023-05-07T09:10:43;9.40;92.20
22173;DHT22;11252;50.596;17.648;2023-05-07T09:13:12;9.70;92.20
22173;DHT22;11252;50.596;17.648;2023-05-07T09:15:41;10.20;92.20
22173;DHT22;11252;50.596;17.648;2023-05-07T09:18:09;10.60;92.20
22173;DHT22;11252;50.596;17.648;2023-05-07T09:20:37;10.90;92.20
22173;DHT22;11252;50.596;17.648;2023-05-07T09:23:05;11.10;92.20
22173;DHT22;11252;50.596;17.648;2023-05-07T09:25:35;11.30;92.20
22173;DHT22;11252;50.596;17.648;2023-05-07T09:28:04;11.30;92.20
22173;DHT22;11252;50.596;17.648;2023-05-07T09:30:37;11.20;92.20
22173;DHT22;11252;50.596;17.648;2023-05-07T09:33:04;11.00;92.20
22173;DHT22;11252;50.596;17.648;2023-05-07T09:35:31;10.70;92.20
22173;DHT22;11252;50.596;17.648;2023-05-07T09:38:00;10.50;92.20
22173;DHT22;11252;50.596;17.648;2023-05-07T09:40:30;10.30;92.20
22173;DHT22;11252;50.596;17.648;2023-05-07T09:43:09;10.20;92.20
22173;DHT22;11252;50.596;17.648;2023-05-07T09:45:38;10.10;92.20
22173;DHT22;11252;50.596;17.648;2023-05-07T09:48:06;10.00;92.20
22173;DHT22;11252;50.596;17.648;2023-05-07T09:50:49;9.90;92.20
22173;DHT22;11252;50.596;17.648;2023-05-07T09:53:18;9.90;92.20
22173;DHT22;11252;50.596;17.648;2023-05-07T09:55:46;10.00;92.20
22173;DHT22;11252;50.596;17.648;2023-05-07T09:58:15;10.10;92.20
22173;DHT22;11252;50.596;17.648;2023-05-07T10:00:44;10.30;92.20
22173;DHT22;11252;50.596;17.648;2023-05-07T10:03:14;10.50;92.20
22173;DHT22;11252;50.596;17.648;2023-05-07T10:05:42;10.80;92.20
22173;DHT22;11252;50.596;17.648;2023-05-07T10:08:11;10.90;92.20
22173;DHT22;11252;50.596;17.648;2023-05-07T10:10:39;11.00;92.20
22173;DHT22;11252;50.596;17.648;2023-05-07T10:13:08;11.10;92.20
22173;DHT22;11252;50.596;17.648;2023-05-07T10:15:38;10.90;92.20
22173;DHT22;11252;50.596;17.648;2023-05-07T10:18:06;10.80;92.20
22173;DHT22;11252;50.596;17.648;2023-05-07T10:20:36;10.70;92.20
22173;DHT22;11252;50.596;17.648;2023-05-07T10:23:05;10.60;92.20
22173;DHT22;11252;50.596;17.648;2023-05-07T10:25:34;10.60;92.20
22173;DHT22;11252;50.596;17.648;2023-05-07T10:28:07;10.60;92.20
22173;DHT22;11252;50.596;17.648;2023-05-07T10:33:50;10.80;92.20
22173;DHT22;11252;50.596;17.648;2023-05-07T10:36:19;10.90;92.20
22173;DHT22;11252;50.596;17.648;2023-05-07T10:38:50;11.00;92.20
22173;DHT22;11252;50.596;17.648;2023-05-07T10:41:18;11.00;92.20
22173;DHT22;11252;50.596;17.648;2023-05-07T10:43:45;11.00;92.20
22173;DHT22;11252;50.596;17.648;2023-05-07T10:46:20;10.90;92.20
22173;DHT22;11252;50.596;17.648;2023-05-07T10:51:32;10.60;92.20
22173;DHT22;11252;50.596;17.648;2023-05-07T10:56:41;10.60;92.20
22173;DHT22;11252;50.596;17.648;2023-05-07T11:01:55;10.70;92.20
22173;DHT22;11252;50.596;17.648;2023-05-07T11:04:25;10.80;92.20
22173;DHT22;11252;50.596;17.648;2023-05-07T11:15:09;10.90;92.20
22173;DHT22;11252;50.596;17.648;2023-05-07T11:17:57;11.10;92.20
22173;DHT22;11252;50.596;17.648;2023-05-07T11:20:48;11.20;92.20
22173;DHT22;11252;50.596;17.648;2023-05-07T11:26:03;11.30;92.20
22173;DHT22;11252;50.596;17.648;2023-05-07T11:28:42;11.20;92.20
22173;DHT22;11252;50.596;17.648;2023-05-07T11:31:10;11.00;92.20
22173;DHT22;11252;50.596;17.648;2023-05-07T11:33:38;10.80;92.20
22173;DHT22;11252;50.596;17.648;2023-05-07T11:36:08;10.70;92.20
22173;DHT22;11252;50.596;17.648;2023-05-07T11:38:37;10.70;92.20
22173;DHT22;11252;50.596;17.648;2023-05-07T11:41:04;10.60;92.20
22173;DHT22;11252;50.596;17.648;2023-05-07T11:43:32;10.50;92.20
22173;DHT22;11252;50.596;17.648;2023-05-07T11:46:11;10.50;92.20
22173;DHT22;11252;50.596;17.648;2023-05-07T11:48:39;10.60;92.20
22173;DHT22;11252;50.596;17.648;2023-05-07T11:51:07;10.60;92.20
22173;DHT22;11252;50.596;17.648;2023-05-07T11:53:41;10.60;92.20
22173;DHT22;11252;50.596;17.648;2023-05-07T11:56:10;10.50;92.20
22173;DHT22;11252;50.596;17.648;2023-05-07T11:58:39;10.50;92.20
22173;DHT22;11252;50.596;17.648;2023-05-07T12:01:11;10.60;92.20
22173;DHT22;11252;50.596;17.648;2023-05-07T12:03:44;10.70;92.20
22173;DHT22;11252;50.596;17.648;2023-05-07T12:06:15;10.70;92.20
22173;DHT22;11252;50.596;17.648;2023-05-07T12:08:45;10.70;92.20
22173;DHT22;11252;50.596;17.648;2023-05-07T12:11:16;10.70;92.20
22173;DHT22;11252;50.596;17.648;2023-05-07T12:13:48;10.70;92.20
22173;DHT22;11252;50.596;17.648;2023-05-07T12:16:16;10.70;92.20
22173;DHT22;11252;50.596;17.648;2023-05-07T12:18:44;10.60;92.20
22173;DHT22;11252;50.596;17.648;2023-05-07T12:21:12;10.60;92.20
22173;DHT22;11252;50.596;17.648;2023-05-07T12:23:40;10.70;92.20
22173;DHT22;11252;50.596;17.648;2023-05-07T12:26:08;10.70;92.20
22173;DHT22;11252;50.596;17.648;2023-05-07T12:28:37;10.80;92.20
22173;DHT22;11252;50.596;17.648;2023-05-07T12:31:06;10.90;92.20
22173;DHT22;11252;50.596;17.648;2023-05-07T12:33:35;10.90;92.20
22173;DHT22;11252;50.596;17.648;2023-05-07T12:36:05;10.90;92.20
22173;DHT22;11252;50.596;17.648;2023-05-07T12:38:40;10.90;92.20
22173;DHT22;11252;50.596;17.648;2023-05-07T12:41:09;10.90;92.20
22173;DHT22;11252;50.596;17.648;2023-05-07T12:43:38;10.80;92.20
22173;DHT22;11252;50.596;17.648;2023-05-07T12:46:07;10.70;92.20
22173;DHT22;11252;50.596;17.648;2023-05-07T12:48:43;10.60;92.20
22173;DHT22;11252;50.596;17.648;2023-05-07T12:51:10;10.60;92.20
22173;DHT22;11252;50.596;17.648;2023-05-07T12:53:41;10.50;92.20
22173;DHT22;11252;50.596;17.648;2023-05-07T12:56:11;10.50;92.20
22173;DHT22;11252;50.596;17.648;2023-05-07T12:58:43;10.50;92.20
22173;DHT22;11252;50.596;17.648;2023-05-07T13:01:10;10.50;92.20
22173;DHT22;11252;50.596;17.648;2023-05-07T13:03:48;10.50;92.20
22173;DHT22;11252;50.596;17.648;2023-05-07T13:06:17;10.60;92.20
22173;DHT22;11252;50.596;17.648;2023-05-07T13:08:45;10.50;92.20
22173;DHT22;11252;50.596;17.648;2023-05-07T13:11:13;10.50;92.20
22173;DHT22;11252;50.596;17.648;2023-05-07T13:13:41;10.50;92.20
22173;DHT22;11252;50.596;17.648;2023-05-07T13:16:10;10.40;92.20
22173;DHT22;11252;50.596;17.648;2023-05-07T13:18:40;10.30;92.20
22173;DHT22;11252;50.596;17.648;2023-05-07T13:21:07;10.20;92.20
22173;DHT22;11252;50.596;17.648;2023-05-07T13:23:35;10.30;92.20
22173;DHT22;11252;50.596;17.648;2023-05-07T13:26:02;10.30;92.20
22173;DHT22;11252;50.596;17.648;2023-05-07T13:28:44;10.20;92.20
22173;DHT22;11252;50.596;17.648;2023-05-07T13:31:12;10.30;92.20
22173;DHT22;11252;50.596;17.648;2023-05-07T13:33:39;10.40;92.20
22173;DHT22;11252;50.596;17.648;2023-05-07T13:36:07;10.50;92.20
22173;DHT22;11252;50.596;17.648;2023-05-07T13:38:36;10.60;92.20
22173;DHT22;11252;50.596;17.648;2023-05-07T13:41:04;10.70;92.20
22173;DHT22;11252;50.596;17.648;2023-05-07T13:43:31;10.70;92.20
22173;DHT22;11252;50.596;17.648;2023-05-07T13:46:00;10.80;92.20
22173;DHT22;11252;50.596;17.648;2023-05-07T13:48:28;10.90;92.20
22173;DHT22;11252;50.596;17.648;2023-05-07T13:50:56;11.00;92.20
22173;DHT22;11252;50.596;17.648;2023-05-07T13:53:24;11.00;92.10
22173;DHT22;11252;50.596;17.648;2023-05-07T13:55:51;10.90;92.20
22173;DHT22;11252;50.596;17.648;2023-05-07T13:58:21;10.80;92.20
22173;DHT22;11252;50.596;17.648;2023-05-07T14:00:48;10.80;92.20
22173;DHT22;11252;50.596;17.648;2023-05-07T14:03:15;10.60;92.20
22173;DHT22;11252;50.596;17.648;2023-05-07T14:05:44;10.60;92.20
22173;DHT22;11252;50.596;17.648;2023-05-07T14:08:14;10.50;92.20
22173;DHT22;11252;50.596;17.648;2023-05-07T14:10:41;10.40;92.20
22173;DHT22;11252;50.596;17.648;2023-05-07T14:13:09;10.30;92.20
22173;DHT22;11252;50.596;17.648;2023-05-07T14:15:37;10.20;92.20
22173;DHT22;11252;50.596;17.648;2023-05-07T14:18:05;10.20;92.20
22173;DHT22;11252;50.596;17.648;2023-05-07T14:20:32;10.20;92.20
22173;DHT22;11252;50.596;17.648;2023-05-07T14:22:59;10.10;92.20
22173;DHT22;11252;50.596;17.648;2023-05-07T14:25:27;10.10;92.20
22173;DHT22;11252;50.596;17.648;2023-05-07T14:27:54;10.10;92.20
22173;DHT22;11252;50.596;17.648;2023-05-07T14:30:22;10.00;92.20
22173;DHT22;11252;50.596;17.648;2023-05-07T14:32:51;10.10;92.20
22173;DHT22;11252;50.596;17.648;2023-05-07T14:35:19;10.10;92.20
22173;DHT22;11252;50.596;17.648;2023-05-07T14:37:46;10.10;92.20
22173;DHT22;11252;50.596;17.648;2023-05-07T14:40:25;10.10;92.20
22173;DHT22;11252;50.596;17.648;2023-05-07T14:42:54;10.10;92.20
22173;DHT22;11252;50.596;17.648;2023-05-07T14:45:23;10.20;92.20
22173;DHT22;11252;50.596;17.648;2023-05-07T14:47:51;10.20;92.20
22173;DHT22;11252;50.596;17.648;2023-05-07T14:50:19;10.20;92.20
22173;DHT22;11252;50.596;17.648;2023-05-07T14:52:46;10.20;92.20
22173;DHT22;11252;50.596;17.648;2023-05-07T14:55:14;10.20;92.20
22173;DHT22;11252;50.596;17.648;2023-05-07T14:57:41;10.20;92.20
22173;DHT22;11252;50.596;17.648;2023-05-07T15:00:09;10.20;92.20
22173;DHT22;11252;50.596;17.648;2023-05-07T15:02:37;10.20;92.20
22173;DHT22;11252;50.596;17.648;2023-05-07T15:05:05;10.30;92.20
22173;DHT22;11252;50.596;17.648;2023-05-07T15:07:33;10.20;92.20
22173;DHT22;11252;50.596;17.648;2023-05-07T15:10:01;10.20;92.20
22173;DHT22;11252;50.596;17.648;2023-05-07T15:12:28;10.10;92.20
22173;DHT22;11252;50.596;17.648;2023-05-07T15:14:56;10.10;92.20
22173;DHT22;11252;50.596;17.648;2023-05-07T15:17:24;10.00;92.20
22173;DHT22;11252;50.596;17.648;2023-05-07T15:19:51;10.00;92.20
22173;DHT22;11252;50.596;17.648;2023-05-07T15:22:23;10.10;92.20
22173;DHT22;11252;50.596;17.648;2023-05-07T15:24:50;10.10;92.20
22173;DHT22;11252;50.596;17.648;2023-05-07T15:27:18;10.00;92.20
22173;DHT22;11252;50.596;17.648;2023-05-07T15:29:45;10.10;92.20
22173;DHT22;11252;50.596;17.648;2023-05-07T15:32:13;10.00;92.20
22173;DHT22;11252;50.596;17.648;2023-05-07T15:34:40;10.00;92.20
22173;DHT22;11252;50.596;17.648;2023-05-07T15:37:08;9.90;92.20
22173;DHT22;11252;50.596;17.648;2023-05-07T15:39:36;9.90;92.20
22173;DHT22;11252;50.596;17.648;2023-05-07T15:42:03;9.90;92.20
22173;DHT22;11252;50.596;17.648;2023-05-07T15:44:31;10.00;92.20
22173;DHT22;11252;50.596;17.648;2023-05-07T15:47:01;9.90;92.20
22173;DHT22;11252;50.596;17.648;2023-05-07T15:49:29;10.00;92.20
22173;DHT22;11252;50.596;17.648;2023-05-07T15:51:57;10.10;92.20
22173;DHT22;11252;50.596;17.648;2023-05-07T15:54:27;10.20;92.20